Main page
METAR-TAF:

METAR-TAF

Airports :

Ocala International Airport

Ocala, Florida, United States

latitude: 29-10N, longitude: 082-13W, elevation: 89 ft

Current weather observation

The report was made 40 minutes ago, at 07:51 UTC
Calm wind
Temperature 68°F
Humidity 88%
Pressure 30.14 in. Hg
Visibility: 10 miles
Broken clouds at a height of 4500 ft
Overcast at a height of 5500 ft

METAR: KOCF 180751Z AUTO 00000KT 10SM BKN045 OVC055 20/18 A3014 RMK AO2 SLP207 T02000178 $

Time: 04:31 (08:31 UTC)


TAF: missing

Weather observations and forecasts of more than 4000 airports (METAR and TAF reports).

The available stations are represented by yellow and red dots on the map.

Hover mouse over dot to see the name of the station.

Then click to see weather observations and forecasts.

To change the map : click on the green buttons with a black cross to zoom in, on the green button with a dash to zoom out, or on the green arrows for adjacent maps.


METAR-TAF: